createdAt,value
2024-04-25T00:01:42.051Z,97429.67
2024-04-25T00:04:09.478Z,97429.67
2024-04-25T00:06:36.881Z,97432.21
2024-04-25T00:09:04.228Z,97431.74
2024-04-25T00:11:31.794Z,97429.94
2024-04-25T00:13:59.251Z,97432.71
2024-04-25T00:16:26.999Z,97432.42
2024-04-25T00:18:54.367Z,97436.15
2024-04-25T00:21:21.707Z,97434.65
2024-04-25T00:23:49.226Z,97433.71
2024-04-25T00:26:16.740Z,97433.52
2024-04-25T00:28:44.175Z,97433.52
2024-04-25T00:31:11.548Z,97435.27
2024-04-25T00:33:39.048Z,97437.66
2024-04-25T00:36:07.424Z,97438.02
2024-04-25T00:38:34.843Z,97440.08
2024-04-25T00:41:02.426Z,97438.41
2024-04-25T00:43:31.026Z,97435.85
2024-04-25T00:45:59.370Z,97441.73
2024-04-25T00:48:28.865Z,97437.59
2024-04-25T00:50:59.078Z,97437.38
2024-04-25T00:53:26.829Z,97435.16
2024-04-25T00:55:57.366Z,97439.73
2024-04-25T00:58:26.090Z,97440.91
2024-04-25T01:00:54.991Z,97441.95
2024-04-25T01:03:22.605Z,97441.33
2024-04-25T01:05:52.575Z,97443.39
2024-04-25T01:08:20.142Z,97442.38
2024-04-25T01:10:47.723Z,97443.27
2024-04-25T01:13:15.285Z,97439.91
2024-04-25T01:15:44.065Z,97439.23
2024-04-25T01:18:13.537Z,97442.68
2024-04-25T01:20:41.105Z,97443.58
2024-04-25T01:23:12.071Z,97442.30
2024-04-25T01:25:39.664Z,97443.53
2024-04-25T01:28:07.326Z,97445.08
2024-04-25T01:30:36.229Z,97448.98
2024-04-25T01:33:05.266Z,97448.98
2024-04-25T01:35:33.270Z,97447.64
2024-04-25T01:38:01.325Z,97445.79
2024-04-25T01:40:28.771Z,97448.15
2024-04-25T01:42:56.129Z,97445.99
2024-04-25T01:45:23.533Z,97448.70
2024-04-25T01:47:51.166Z,97449.59
2024-04-25T01:50:18.814Z,97449.08
2024-04-25T01:52:46.262Z,97450.95
2024-04-25T01:55:13.807Z,97452.11
2024-04-25T01:57:41.281Z,97448.71
2024-04-25T02:00:09.129Z,97447.88
2024-04-25T02:02:36.749Z,97448.75
2024-04-25T02:05:04.592Z,97450.45
2024-04-25T02:07:32.224Z,97453.17
2024-04-25T02:10:00.708Z,97455.06
2024-04-25T02:12:28.990Z,97456.95
2024-04-25T02:14:56.501Z,97457.13
2024-04-25T02:17:23.928Z,97453.77
2024-04-25T02:19:51.328Z,97452.31
2024-04-25T02:22:18.652Z,97449.85
2024-04-25T02:24:46.024Z,97449.89
2024-04-25T02:27:13.358Z,97446.04
2024-04-25T02:29:40.773Z,97448.94
2024-04-25T02:32:08.208Z,97448.31
2024-04-25T02:34:35.702Z,97448.35
2024-04-25T02:37:03.161Z,97448.38
2024-04-25T02:39:30.748Z,97452.11
2024-04-25T02:41:58.489Z,97459.22
2024-04-25T02:44:26.080Z,97457.05
2024-04-25T02:46:53.611Z,97459.27
2024-04-25T02:49:21.894Z,97459.61
2024-04-25T02:51:49.253Z,97458.10
2024-04-25T02:54:16.601Z,97465.37
2024-04-25T02:56:44.113Z,97469.40
2024-04-25T02:59:11.742Z,97471.27
2024-04-25T03:01:39.301Z,97473.98
2024-04-25T03:04:09.460Z,97471.95
2024-04-25T03:06:38.704Z,97469.96
2024-04-25T03:09:06.048Z,97470.56
2024-04-25T03:11:33.462Z,97469.33
2024-04-25T03:14:00.980Z,97466.45
2024-04-25T03:16:28.439Z,97465.64
2024-04-25T03:18:55.948Z,97469.59
2024-04-25T03:21:23.490Z,97468.33
2024-04-25T03:23:50.872Z,97471.15
2024-04-25T03:26:18.254Z,97471.23
2024-04-25T03:28:45.727Z,97471.02
2024-04-25T03:31:13.068Z,97474.34
2024-04-25T03:33:40.538Z,97476.63
2024-04-25T03:36:07.963Z,97480.89
2024-04-25T03:38:35.375Z,97481.58
2024-04-25T03:41:02.856Z,97486.13
2024-04-25T03:43:30.346Z,97484.97
2024-04-25T03:45:57.832Z,97487.00
2024-04-25T03:48:25.323Z,97490.73
2024-04-25T03:50:52.889Z,97495.27
2024-04-25T03:53:20.385Z,97494.40
2024-04-25T03:55:47.800Z,97497.41
2024-04-25T03:58:15.191Z,97501.74
2024-04-25T04:00:43.121Z,97502.45
2024-04-25T04:03:10.713Z,97502.43
2024-04-25T04:05:38.334Z,97502.22
2024-04-25T04:08:06.661Z,97502.71
2024-04-25T04:10:34.087Z,97505.84
2024-04-25T04:13:02.682Z,97508.77
2024-04-25T04:15:30.162Z,97504.91
2024-04-25T04:17:57.714Z,97505.98
2024-04-25T04:20:25.244Z,97507.54
2024-04-25T04:22:52.779Z,97512.04
2024-04-25T04:25:20.148Z,97513.96
2024-04-25T04:27:47.593Z,97515.89
2024-04-25T04:30:15.058Z,97514.97
2024-04-25T04:32:42.667Z,97518.27
2024-04-25T04:35:10.127Z,97514.54
2024-04-25T04:37:37.523Z,97515.73
2024-04-25T04:40:05.526Z,97513.48
2024-04-25T04:42:32.901Z,97516.55
2024-04-25T04:45:00.375Z,97515.21
2024-04-25T04:47:27.938Z,97521.02
2024-04-25T04:49:55.364Z,97520.09
2024-04-25T04:52:22.824Z,97521.73
2024-04-25T04:54:50.189Z,97528.77
2024-04-25T04:57:17.849Z,97528.08
2024-04-25T04:59:45.270Z,97528.54
2024-04-25T05:02:13.013Z,97532.62
2024-04-25T05:04:40.700Z,97535.17
2024-04-25T05:07:08.070Z,97536.15
2024-04-25T05:09:35.456Z,97537.47
2024-04-25T05:12:03.278Z,97537.72
2024-04-25T05:14:31.085Z,97539.48
2024-04-25T05:16:58.608Z,97532.41
2024-04-25T05:19:25.984Z,97534.10
2024-04-25T05:21:53.332Z,97539.32
2024-04-25T05:24:20.903Z,97541.30
2024-04-25T05:26:48.244Z,97541.46
2024-04-25T05:29:15.684Z,97543.29
2024-04-25T05:31:43.153Z,97542.46
2024-04-25T05:34:10.638Z,97539.19
2024-04-25T05:36:38.200Z,97541.12
2024-04-25T05:39:05.834Z,97544.66
2024-04-25T05:41:33.310Z,97543.33
2024-04-25T05:44:00.750Z,97545.66
2024-04-25T05:46:28.136Z,97542.89
2024-04-25T05:48:55.583Z,97543.89
2024-04-25T05:51:22.954Z,97544.45
2024-04-25T05:53:50.362Z,97547.83
2024-04-25T05:56:17.782Z,97549.42
2024-04-25T05:58:45.226Z,97556.04
2024-04-25T06:01:12.672Z,97556.24
2024-04-25T06:03:40.232Z,97557.01
2024-04-25T06:06:07.647Z,97561.29
2024-04-25T06:08:35.476Z,97559.42
2024-04-25T06:11:03.761Z,97558.78
2024-04-25T06:13:31.381Z,97562.12
2024-04-25T06:15:58.741Z,97561.36
2024-04-25T06:18:26.194Z,97563.17
2024-04-25T06:20:53.700Z,97568.16
2024-04-25T06:23:21.443Z,97568.89
2024-04-25T06:25:49.010Z,97573.30
2024-04-25T06:28:16.443Z,97573.86
2024-04-25T06:30:43.809Z,97575.27
2024-04-25T06:33:11.307Z,97578.54
2024-04-25T06:35:38.787Z,97580.13
2024-04-25T06:38:06.156Z,97584.90
2024-04-25T06:40:33.630Z,97583.21
2024-04-25T06:43:01.103Z,97590.75
2024-04-25T06:45:28.547Z,97586.45
2024-04-25T06:47:56.128Z,97587.98
2024-04-25T06:50:23.611Z,97588.84
2024-04-25T06:52:50.982Z,97590.66
2024-04-25T06:55:18.419Z,97591.14
2024-04-25T06:57:47.579Z,97590.41
2024-04-25T07:00:15.111Z,97596.12
2024-04-25T07:02:42.602Z,97590.40
2024-04-25T07:05:10.052Z,97597.90
2024-04-25T07:07:38.146Z,97597.52
2024-04-25T07:10:06.294Z,97603.17
2024-04-25T07:12:35.096Z,97603.70
2024-04-25T07:15:02.980Z,97600.55
2024-04-25T07:17:30.622Z,97599.52
2024-04-25T07:19:58.181Z,97601.36
2024-04-25T07:22:25.650Z,97606.20
2024-04-25T07:24:53.088Z,97609.17
2024-04-25T07:27:20.475Z,97608.04
2024-04-25T07:29:48.366Z,97603.01
2024-04-25T07:32:15.936Z,97603.15
2024-04-25T07:34:45.084Z,97607.38
2024-04-25T07:37:12.650Z,97605.80
2024-04-25T07:39:40.056Z,97607.48
2024-04-25T07:42:07.662Z,97611.67
2024-04-25T07:44:35.026Z,97614.73
2024-04-25T07:47:02.772Z,97613.13
2024-04-25T07:49:30.087Z,97615.26
2024-04-25T07:51:57.424Z,97614.15
2024-04-25T07:54:24.782Z,97616.61
2024-04-25T07:56:52.200Z,97618.25
2024-04-25T07:59:19.629Z,97620.66
2024-04-25T08:01:47.061Z,97619.51
2024-04-25T08:04:14.437Z,97616.17
2024-04-25T08:06:41.936Z,97616.57
2024-04-25T08:09:09.380Z,97613.52
2024-04-25T08:11:36.794Z,97616.39
2024-04-25T08:14:04.316Z,97609.73
2024-04-25T08:16:33.146Z,97611.91
2024-04-25T08:19:00.560Z,97610.90
2024-04-25T08:21:28.028Z,97611.91
2024-04-25T08:23:55.500Z,97610.13
2024-04-25T08:26:25.721Z,97615.66
2024-04-25T08:28:53.126Z,97615.27
2024-04-25T08:31:20.619Z,97615.02
2024-04-25T08:33:48.152Z,97615.75
2024-04-25T08:36:15.653Z,97616.45
2024-04-25T08:38:43.139Z,97619.29
2024-04-25T08:41:11.457Z,97625.63
2024-04-25T08:43:43.367Z,97629.05
2024-04-25T08:46:11.189Z,97632.58
2024-04-25T08:48:39.242Z,97631.46
2024-04-25T08:51:09.437Z,97634.85
2024-04-25T08:53:40.788Z,97632.63
2024-04-25T08:56:08.677Z,97633.30
2024-04-25T08:58:36.059Z,97631.34
2024-04-25T09:01:03.868Z,97625.52
2024-04-25T09:03:31.527Z,97620.77
2024-04-25T09:05:59.117Z,97620.31
2024-04-25T09:08:29.830Z,97619.50
2024-04-25T09:10:57.298Z,97614.76
2024-04-25T09:13:24.726Z,97612.20
2024-04-25T09:15:52.119Z,97617.60
2024-04-25T09:18:19.620Z,97619.40
2024-04-25T09:20:47.184Z,97618.91
2024-04-25T09:23:14.603Z,97617.77
2024-04-25T09:25:41.982Z,97618.73
2024-04-25T09:28:10.777Z,97620.88
2024-04-25T09:30:38.222Z,97623.94
2024-04-25T09:33:06.151Z,97624.48
2024-04-25T09:35:42.964Z,97618.59
2024-04-25T09:38:10.420Z,97616.77
2024-04-25T09:40:37.864Z,97616.41
2024-04-25T09:43:05.374Z,97624.21
2024-04-25T09:45:34.171Z,97617.73
2024-04-25T09:48:05.695Z,97618.64
2024-04-25T09:50:38.562Z,97626.23
2024-04-25T09:53:14.815Z,97620.88
2024-04-25T09:55:43.533Z,97619.20
2024-04-25T09:58:39.934Z,97616.89
2024-04-25T10:01:08.672Z,97612.61
2024-04-25T10:03:38.159Z,97616.41
2024-04-25T10:06:06.179Z,97612.89
2024-04-25T10:08:33.980Z,97613.79
2024-04-25T10:11:03.970Z,97614.56
2024-04-25T10:13:33.090Z,97617.45
2024-04-25T10:16:00.664Z,97620.05
2024-04-25T10:18:28.498Z,97621.16
2024-04-25T10:21:00.635Z,97619.84
2024-04-25T10:23:32.522Z,97619.55
2024-04-25T10:25:59.915Z,97616.57
2024-04-25T10:28:29.735Z,97615.38
2024-04-25T10:30:57.058Z,97613.98
2024-04-25T10:33:24.476Z,97615.74
2024-04-25T10:35:52.042Z,97610.93
2024-04-25T10:38:20.604Z,97617.12
2024-04-25T10:40:48.045Z,97615.11
2024-04-25T10:43:15.424Z,97617.98
2024-04-25T10:45:43.047Z,97617.77
2024-04-25T10:48:11.443Z,97619.75
2024-04-25T10:50:39.066Z,97620.27
2024-04-25T10:53:06.487Z,97621.38
2024-04-25T10:55:34.351Z,97621.35
2024-04-25T10:58:12.909Z,97621.56
2024-04-25T11:00:41.733Z,97621.90
2024-04-25T11:03:13.006Z,97610.63
2024-04-25T11:05:41.823Z,97609.80
2024-04-25T11:08:09.346Z,97607.56
2024-04-25T11:10:36.960Z,97613.43
2024-04-25T11:13:05.216Z,97613.50
2024-04-25T11:15:32.881Z,97613.11
2024-04-25T11:18:06.901Z,97610.30
2024-04-25T11:20:38.268Z,97609.65
2024-04-25T11:23:14.245Z,97610.20
2024-04-25T11:25:42.051Z,97620.70
2024-04-25T11:28:09.745Z,97619.38
2024-04-25T11:30:37.682Z,97617.49
2024-04-25T11:33:05.740Z,97616.95
2024-04-25T11:35:33.423Z,97615.98
2024-04-25T11:38:00.827Z,97616.98
2024-04-25T11:40:32.520Z,97614.66
2024-04-25T11:43:00.177Z,97611.91
2024-04-25T11:45:30.680Z,97609.25
2024-04-25T11:47:59.918Z,97609.12
2024-04-25T11:50:27.415Z,97609.86
2024-04-25T11:52:54.863Z,97614.95
2024-04-25T11:55:22.259Z,97617.67
2024-04-25T11:57:49.769Z,97615.02
2024-04-25T12:00:17.180Z,97610.27
2024-04-25T12:02:44.628Z,97611.38
2024-04-25T12:05:12.095Z,97613.83
2024-04-25T12:07:39.498Z,97614.45
2024-04-25T12:10:06.985Z,97614.26
2024-04-25T12:12:34.477Z,97614.86
2024-04-25T12:15:01.880Z,97608.80
2024-04-25T12:17:32.014Z,97603.86
2024-04-25T12:20:01.293Z,97603.65
2024-04-25T12:22:28.788Z,97606.60
2024-04-25T12:24:56.142Z,97610.98
2024-04-25T12:27:23.607Z,97611.84
2024-04-25T12:29:51.074Z,97608.31
2024-04-25T12:32:18.600Z,97610.20
2024-04-25T12:34:45.975Z,97606.95
2024-04-25T12:37:13.436Z,97611.85
2024-04-25T12:39:40.810Z,97611.44
2024-04-25T12:42:08.901Z,97608.20
2024-04-25T12:44:36.377Z,97607.02
2024-04-25T12:47:04.095Z,97605.37
2024-04-25T12:49:36.758Z,97604.98
2024-04-25T12:52:05.500Z,97605.23
2024-04-25T12:54:33.500Z,97604.90
2024-04-25T12:57:02.103Z,97605.17
2024-04-25T12:59:29.776Z,97605.39
2024-04-25T13:01:57.355Z,97604.58
2024-04-25T13:04:25.250Z,97601.13
2024-04-25T13:06:52.646Z,97601.52
2024-04-25T13:09:20.039Z,97602.52
2024-04-25T13:11:47.529Z,97598.98
2024-04-25T13:14:16.843Z,97595.03
2024-04-25T13:16:45.055Z,97595.05
2024-04-25T13:19:14.479Z,97595.39
2024-04-25T13:21:45.857Z,97593.31
2024-04-25T13:24:15.198Z,97595.54
2024-04-25T13:26:46.848Z,97592.05
2024-04-25T13:29:19.520Z,97591.80
2024-04-25T13:31:52.063Z,97587.84
2024-04-25T13:34:25.729Z,97589.64
2024-04-25T13:37:00.035Z,97598.92
2024-04-25T13:39:27.534Z,97597.84
2024-04-25T13:41:54.948Z,97602.46
2024-04-25T13:44:22.337Z,97602.94
2024-04-25T13:46:49.734Z,97605.44
2024-04-25T13:49:17.866Z,97604.95
2024-04-25T13:51:45.561Z,97608.75
2024-04-25T13:54:12.922Z,97606.58
2024-04-25T13:56:40.303Z,97600.83
2024-04-25T13:59:07.716Z,97602.41
2024-04-25T14:01:35.218Z,97603.36
2024-04-25T14:04:02.681Z,97606.68
2024-04-25T14:06:30.106Z,97606.22
2024-04-25T14:08:57.518Z,97602.60
2024-04-25T14:11:24.951Z,97602.29
2024-04-25T14:13:52.363Z,97602.33
2024-04-25T14:16:19.822Z,97601.70
2024-04-25T14:18:47.334Z,97606.09
2024-04-25T14:21:15.233Z,97602.43
2024-04-25T14:23:42.667Z,97603.04
2024-04-25T14:26:10.060Z,97598.96
2024-04-25T14:28:37.431Z,97603.86
2024-04-25T14:31:04.836Z,97603.55
2024-04-25T14:33:32.814Z,97596.84
2024-04-25T14:36:00.743Z,97601.67
2024-04-25T14:38:28.822Z,97603.07
2024-04-25T14:40:56.405Z,97598.86
2024-04-25T14:43:23.782Z,97598.14
2024-04-25T14:45:51.848Z,97603.59
2024-04-25T14:48:19.350Z,97599.07
2024-04-25T14:50:46.940Z,97598.45
2024-04-25T14:53:14.483Z,97595.21
2024-04-25T14:55:41.861Z,97599.40
2024-04-25T14:58:09.243Z,97596.23
2024-04-25T15:00:36.605Z,97596.31
2024-04-25T15:03:04.006Z,97592.75
2024-04-25T15:05:31.549Z,97594.34
2024-04-25T15:07:59.301Z,97595.82
2024-04-25T15:10:26.841Z,97599.23
2024-04-25T15:12:54.207Z,97592.48
2024-04-25T15:15:23.268Z,97595.80
2024-04-25T15:17:50.846Z,97598.49
2024-04-25T15:20:19.669Z,97598.39
2024-04-25T15:22:47.876Z,97602.77
2024-04-25T15:25:15.347Z,97600.55
2024-04-25T15:27:42.760Z,97600.58
2024-04-25T15:30:10.400Z,97602.09
2024-04-25T15:32:37.885Z,97601.35
2024-04-25T15:35:09.253Z,97606.78
2024-04-25T15:37:37.088Z,97605.38
2024-04-25T15:46:40.216Z,97608.81
2024-04-25T15:52:18.507Z,97611.51
2024-04-25T15:54:52.239Z,97608.79
2024-04-25T16:00:43.379Z,97618.28
2024-04-25T16:03:52.605Z,97618.17
2024-04-25T16:12:47.527Z,97617.58
2024-04-25T16:21:31.776Z,97619.67
2024-04-25T16:24:47.685Z,97620.35
2024-04-25T16:30:14.534Z,97624.10
2024-04-25T16:32:52.967Z,97623.11
2024-04-25T16:36:06.484Z,97626.20
2024-04-25T16:47:02.958Z,97630.79
2024-04-25T16:53:01.218Z,97637.83
2024-04-25T16:58:38.315Z,97647.36
2024-04-25T17:09:28.788Z,97651.97
2024-04-25T17:12:40.200Z,97656.04
2024-04-25T17:15:07.915Z,97656.94
2024-04-25T17:17:35.816Z,97659.84
2024-04-25T17:20:03.429Z,97664.98
2024-04-25T17:22:31.112Z,97660.27
2024-04-25T17:24:58.524Z,97663.40
2024-04-25T17:27:26.005Z,97668.84
2024-04-25T17:29:53.566Z,97674.21
2024-04-25T17:32:21.298Z,97675.89
2024-04-25T17:34:49.104Z,97679.77
2024-04-25T17:37:16.465Z,97680.47
2024-04-25T17:39:43.837Z,97681.77
2024-04-25T17:42:11.246Z,97691.30
2024-04-25T17:44:38.699Z,97691.73
2024-04-25T17:47:06.584Z,97694.47
2024-04-25T17:49:33.999Z,97700.23
2024-04-25T17:52:01.448Z,97699.73
2024-04-25T17:54:28.981Z,97696.92
2024-04-25T17:56:56.443Z,97707.69
2024-04-25T17:59:23.891Z,97707.34
2024-04-25T18:01:51.264Z,97707.09
2024-04-25T18:04:18.682Z,97710.83
2024-04-25T18:06:46.068Z,97713.94
2024-04-25T18:09:13.436Z,97716.01
2024-04-25T18:11:40.933Z,97715.80
2024-04-25T18:14:08.360Z,97717.91
2024-04-25T18:16:36.963Z,97725.92
2024-04-25T18:19:04.789Z,97719.35
2024-04-25T18:21:32.367Z,97726.17
2024-04-25T18:24:02.682Z,97727.92
2024-04-25T18:26:30.587Z,97731.39
2024-04-25T18:28:58.211Z,97740.25
2024-04-25T18:31:25.879Z,97739.95
2024-04-25T18:33:53.326Z,97741.61
2024-04-25T18:36:20.801Z,97749.38
2024-04-25T18:38:48.238Z,97754.44
2024-04-25T18:41:16.314Z,97757.74
2024-04-25T18:43:43.767Z,97756.83
2024-04-25T18:46:11.274Z,97762.19
2024-04-25T18:48:38.815Z,97764.52
2024-04-25T18:51:06.396Z,97764.75
2024-04-25T18:53:33.775Z,97771.56
2024-04-25T18:56:01.396Z,97774.98
2024-04-25T18:58:28.755Z,97775.80
2024-04-25T19:00:56.135Z,97773.88
2024-04-25T19:03:23.684Z,97780.04
2024-04-25T19:05:51.329Z,97784.34
2024-04-25T19:08:18.774Z,97782.14
2024-04-25T19:10:46.285Z,97788.04
2024-04-25T19:13:13.757Z,97787.84
2024-04-25T19:15:41.246Z,97789.52
2024-04-25T19:18:09.084Z,97789.65
2024-04-25T19:20:36.641Z,97795.32
2024-04-25T19:23:04.178Z,97792.53
2024-04-25T19:25:31.692Z,97792.05
2024-04-25T19:27:59.144Z,97789.21
2024-04-25T19:30:26.516Z,97791.44
2024-04-25T19:32:54.089Z,97791.48
2024-04-25T19:35:22.052Z,97787.29
2024-04-25T19:37:49.590Z,97793.55
2024-04-25T19:40:16.985Z,97791.52
2024-04-25T19:42:44.444Z,97796.06
2024-04-25T19:45:11.849Z,97799.11
2024-04-25T19:47:39.979Z,97801.66
2024-04-25T19:50:08.378Z,97803.34
2024-04-25T19:52:36.196Z,97803.18
2024-04-25T19:55:03.862Z,97804.52
2024-04-25T19:57:31.525Z,97805.48
2024-04-25T19:59:58.984Z,97804.70
2024-04-25T20:02:26.785Z,97807.70
2024-04-25T20:04:54.320Z,97804.95
2024-04-25T20:07:21.649Z,97809.12
2024-04-25T20:09:49.010Z,97814.63
2024-04-25T20:12:16.385Z,97814.54
2024-04-25T20:14:43.860Z,97816.61
2024-04-25T20:17:11.228Z,97817.16
2024-04-25T20:19:38.609Z,97817.63
2024-04-25T20:22:06.062Z,97820.29
2024-04-25T20:24:33.458Z,97819.70
2024-04-25T20:27:00.938Z,97815.60
2024-04-25T20:29:30.264Z,97817.87
2024-04-25T20:31:57.846Z,97819.15
2024-04-25T20:34:25.409Z,97821.07
2024-04-25T20:36:52.849Z,97827.05
2024-04-25T20:39:20.294Z,97829.31
2024-04-25T20:41:47.855Z,97828.07
2024-04-25T20:44:15.224Z,97830.55
2024-04-25T20:46:42.637Z,97834.07
2024-04-25T20:49:10.091Z,97839.89
2024-04-25T20:51:39.253Z,97840.64
2024-04-25T20:54:08.227Z,97843.02
2024-04-25T20:56:40.221Z,97839.82
2024-04-25T20:59:07.641Z,97845.39
2024-04-25T21:01:38.149Z,97847.58
2024-04-25T21:04:05.691Z,97846.19
2024-04-25T21:06:38.003Z,97845.36
2024-04-25T21:09:05.865Z,97848.04
2024-04-25T21:11:33.609Z,97847.36
2024-04-25T21:14:01.108Z,97850.77
2024-04-25T21:16:28.621Z,97849.84
2024-04-25T21:18:56.231Z,97852.97
2024-04-25T21:21:23.673Z,97857.50
2024-04-25T21:23:51.063Z,97856.44
2024-04-25T21:26:18.506Z,97853.21
2024-04-25T21:28:45.889Z,97854.70
2024-04-25T21:31:13.289Z,97860.02
2024-04-25T21:33:40.696Z,97867.86
2024-04-25T21:36:08.278Z,97873.29
2024-04-25T21:38:39.070Z,97880.73
2024-04-25T21:41:06.511Z,97885.09
2024-04-25T21:43:34.025Z,97887.52
2024-04-25T21:46:01.402Z,97887.53
2024-04-25T21:48:28.962Z,97882.02
2024-04-25T21:50:56.508Z,97882.65
2024-04-25T21:53:24.054Z,97886.52
2024-04-25T21:55:51.477Z,97880.99
2024-04-25T21:58:18.999Z,97878.36
2024-04-25T22:00:46.633Z,97877.14
2024-04-25T22:03:31.885Z,97874.73
2024-04-25T22:05:59.428Z,97872.13
2024-04-25T22:08:26.969Z,97873.04
2024-04-25T22:10:54.409Z,97870.42
2024-04-25T22:13:21.803Z,97872.73
2024-04-25T22:15:49.231Z,97868.65
2024-04-25T22:18:16.797Z,97866.17
2024-04-25T22:20:44.392Z,97865.88
2024-04-25T22:23:11.760Z,97864.23
2024-04-25T22:25:39.112Z,97863.79
2024-04-25T22:28:07.119Z,97863.25
2024-04-25T22:30:34.521Z,97862.69
2024-04-25T22:33:02.037Z,97862.59
2024-04-25T22:35:29.501Z,97856.59
2024-04-25T22:37:56.911Z,97859.17
2024-04-25T22:40:24.270Z,97857.16
2024-04-25T22:42:52.434Z,97859.22
2024-04-25T22:45:24.835Z,97862.13
2024-04-25T22:47:56.287Z,97867.38
2024-04-25T22:50:23.738Z,97865.86
2024-04-25T22:52:51.243Z,97867.88
2024-04-25T22:55:18.810Z,97871.49
2024-04-25T22:57:46.263Z,97873.45
2024-04-25T23:00:14.246Z,97873.04
2024-04-25T23:02:41.782Z,97872.86
2024-04-25T23:05:09.281Z,97873.27
2024-04-25T23:07:36.817Z,97870.31
2024-04-25T23:10:04.846Z,97869.20
2024-04-25T23:12:32.373Z,97866.09
2024-04-25T23:14:59.860Z,97867.94
2024-04-25T23:17:27.282Z,97871.49
2024-04-25T23:19:54.680Z,97869.52
2024-04-25T23:22:22.052Z,97866.84
2024-04-25T23:24:49.526Z,97869.09
2024-04-25T23:27:16.994Z,97870.27
2024-04-25T23:29:44.481Z,97869.89
2024-04-25T23:32:11.854Z,97869.52
2024-04-25T23:34:39.368Z,97870.66
2024-04-25T23:37:07.221Z,97871.78
2024-04-25T23:39:34.618Z,97870.19
2024-04-25T23:42:02.282Z,97870.80
2024-04-25T23:44:29.722Z,97866.73
2024-04-25T23:46:57.277Z,97865.33
2024-04-25T23:49:24.846Z,97864.29
2024-04-25T23:51:52.299Z,97866.43
2024-04-25T23:54:19.758Z,97864.32
2024-04-25T23:56:47.155Z,97861.21
2024-04-25T23:59:14.611Z,97862.95
